createdAt,value
2022-10-11T04:00:30.375Z,51.04
2022-10-11T04:04:33.091Z,51.00
2022-10-11T04:08:35.735Z,50.79
2022-10-11T04:12:39.071Z,50.22
2022-10-11T04:16:43.051Z,49.90
2022-10-11T04:20:45.627Z,50.08
2022-10-11T04:24:48.230Z,50.02
2022-10-11T04:28:50.903Z,50.33
2022-10-11T04:32:54.885Z,50.60
2022-10-11T04:36:57.499Z,50.49
2022-10-11T04:41:07.327Z,51.61
2022-10-11T04:45:10.840Z,51.69
2022-10-11T04:49:14.812Z,51.34
2022-10-11T04:53:17.286Z,50.39
2022-10-11T04:57:20.000Z,50.21
2022-10-11T05:01:22.804Z,49.70
2022-10-11T05:05:26.744Z,49.46
2022-10-11T05:09:29.581Z,49.21
2022-10-11T05:13:33.439Z,49.49
2022-10-11T05:17:36.319Z,49.74
2022-10-11T05:21:40.290Z,49.65
2022-10-11T05:25:42.979Z,50.06
2022-10-11T05:29:45.704Z,49.48
2022-10-11T05:33:48.318Z,49.39
2022-10-11T05:37:52.226Z,49.33
2022-10-11T05:41:54.825Z,49.31
2022-10-11T05:45:57.695Z,48.98
2022-10-11T05:50:00.648Z,49.04
2022-10-11T05:54:04.671Z,48.82
2022-10-11T05:58:08.427Z,48.91
2022-10-11T06:02:12.888Z,48.67
2022-10-11T06:06:15.988Z,48.26
2022-10-11T06:10:19.947Z,48.62
2022-10-11T06:14:22.593Z,49.06
2022-10-11T06:18:25.197Z,49.23
2022-10-11T06:22:27.811Z,49.22
2022-10-11T06:26:32.105Z,48.89
2022-10-11T06:30:34.676Z,49.10
2022-10-11T06:34:37.256Z,49.13
2022-10-11T06:38:44.744Z,48.77
2022-10-11T06:42:50.421Z,48.21
2022-10-11T06:46:53.064Z,47.77
2022-10-11T06:50:59.960Z,47.50
2022-10-11T06:55:03.101Z,46.70
2022-10-11T06:59:07.391Z,46.42
2022-10-11T07:03:09.972Z,46.28
2022-10-11T07:07:14.650Z,46.15
2022-10-11T07:11:19.578Z,46.32
2022-10-11T07:15:23.506Z,46.11
2022-10-11T07:19:26.062Z,46.02
2022-10-11T07:23:28.678Z,46.76
2022-10-11T07:27:31.305Z,46.52
2022-10-11T07:31:36.991Z,46.11
2022-10-11T07:35:39.666Z,46.19
2022-10-11T07:39:42.722Z,45.91
2022-10-11T07:43:47.692Z,45.91
2022-10-11T07:47:51.619Z,46.09
2022-10-11T07:51:54.302Z,45.82
2022-10-11T07:56:00.822Z,45.44
2022-10-11T08:00:03.837Z,45.40
2022-10-11T08:04:16.225Z,45.15
2022-10-11T08:08:19.391Z,44.74
2022-10-11T08:12:21.986Z,44.51
2022-10-11T08:16:25.101Z,44.53
2022-10-11T08:20:31.169Z,44.71
2022-10-11T08:24:38.186Z,44.19
2022-10-11T08:28:41.210Z,44.36
2022-10-11T08:32:43.836Z,44.11
2022-10-11T08:36:48.567Z,45.29
2022-10-11T08:40:55.114Z,45.04
2022-10-11T08:45:17.203Z,45.10
2022-10-11T08:49:24.921Z,45.33
2022-10-11T08:53:43.983Z,45.33
2022-10-11T08:57:52.062Z,44.96
2022-10-11T09:02:03.073Z,44.17
2022-10-11T09:06:14.771Z,45.28
2022-10-11T09:10:51.535Z,44.33
2022-10-11T09:15:12.148Z,44.41
2022-10-11T09:19:35.258Z,44.32
2022-10-11T09:24:09.518Z,44.28
2022-10-11T09:28:22.389Z,43.36
2022-10-11T09:32:29.800Z,42.91
2022-10-11T09:36:38.269Z,42.84
2022-10-11T09:40:53.675Z,42.00
2022-10-11T09:45:00.012Z,41.60
2022-10-11T09:49:04.964Z,41.23
2022-10-11T09:53:07.918Z,41.17
2022-10-11T09:57:20.814Z,40.24
2022-10-11T10:01:28.157Z,39.97
2022-10-11T10:05:32.444Z,39.35
2022-10-11T10:09:35.024Z,39.11
2022-10-11T10:13:45.200Z,38.72
2022-10-11T10:17:51.699Z,39.14
2022-10-11T10:21:57.105Z,38.92
2022-10-11T10:26:15.142Z,38.53
2022-10-11T10:30:20.629Z,38.37
2022-10-11T10:34:28.624Z,38.13
2022-10-11T10:38:36.464Z,38.61
2022-10-11T10:42:39.115Z,39.19
2022-10-11T10:46:58.363Z,39.20
2022-10-11T10:51:10.472Z,39.00
2022-10-11T10:55:22.422Z,38.96
2022-10-11T10:59:55.155Z,39.09
2022-10-11T11:04:07.400Z,38.86
2022-10-11T11:08:16.901Z,38.74
2022-10-11T11:12:33.241Z,38.66
2022-10-11T11:16:42.528Z,39.08
2022-10-11T11:20:57.672Z,38.43
2022-10-11T11:25:12.604Z,37.85
2022-10-11T11:29:27.263Z,37.62
2022-10-11T11:33:46.353Z,36.70
2022-10-11T11:38:01.283Z,37.25
2022-10-11T11:42:12.955Z,37.21
2022-10-11T11:46:21.381Z,37.14
2022-10-11T11:50:27.858Z,36.14
2022-10-11T11:54:52.978Z,37.12
2022-10-11T11:59:03.931Z,36.81
2022-10-11T12:03:13.208Z,35.71
2022-10-11T12:07:18.460Z,35.16
2022-10-11T12:11:25.256Z,34.78
2022-10-11T12:15:29.675Z,33.77
2022-10-11T12:19:32.442Z,33.29
2022-10-11T12:23:47.472Z,33.85
2022-10-11T12:27:51.763Z,33.34
2022-10-11T12:32:35.303Z,32.85
2022-10-11T12:36:41.424Z,32.46
2022-10-11T12:40:47.027Z,32.93
2022-10-11T12:45:22.894Z,32.78
2022-10-11T12:49:51.559Z,33.12
2022-10-11T12:54:30.041Z,32.40
2022-10-11T12:58:41.351Z,31.62
2022-10-11T13:02:44.031Z,31.35
2022-10-11T13:06:49.061Z,30.58
2022-10-11T13:10:54.244Z,30.72
2022-10-11T13:15:04.226Z,30.13
2022-10-11T13:19:06.927Z,30.23
2022-10-11T13:23:22.957Z,30.28
2022-10-11T13:27:28.494Z,30.94
2022-10-11T13:31:31.139Z,31.64
2022-10-11T13:35:36.632Z,30.98
2022-10-11T13:39:40.058Z,29.83
2022-10-11T13:43:45.103Z,31.04
2022-10-11T13:47:48.907Z,30.84
2022-10-11T13:51:59.051Z,31.85
2022-10-11T13:56:05.027Z,31.76
2022-10-11T14:00:26.432Z,31.66
2022-10-11T14:04:39.631Z,31.32
2022-10-11T14:08:47.145Z,31.17
2022-10-11T14:13:01.139Z,30.56
2022-10-11T14:17:12.821Z,31.07
2022-10-11T14:21:40.216Z,30.73
2022-10-11T14:25:42.842Z,31.60
2022-10-11T14:29:55.620Z,32.56
2022-10-11T14:34:12.349Z,33.54
2022-10-11T14:38:15.157Z,33.34
2022-10-11T14:42:18.721Z,33.42
2022-10-11T14:46:24.511Z,33.80
2022-10-11T14:50:37.784Z,34.14
2022-10-11T14:54:41.271Z,34.82
2022-10-11T14:58:44.285Z,34.37
2022-10-11T15:02:47.046Z,36.82
2022-10-11T15:06:54.796Z,37.30
2022-10-11T15:10:57.537Z,36.52
2022-10-11T15:15:00.383Z,38.53
2022-10-11T15:19:02.978Z,38.02
2022-10-11T15:23:09.541Z,38.89
2022-10-11T15:27:12.212Z,38.71
2022-10-11T15:31:15.467Z,38.10
2022-10-11T15:35:18.574Z,37.88
2022-10-11T15:39:27.524Z,37.16
2022-10-11T15:43:30.232Z,37.11
2022-10-11T15:47:32.883Z,36.44
2022-10-11T15:51:35.530Z,36.75
2022-10-11T15:55:42.332Z,37.37
2022-10-11T15:59:45.075Z,37.93
2022-10-11T16:03:49.599Z,38.28
2022-10-11T16:07:52.409Z,37.98
2022-10-11T16:11:56.471Z,39.20
2022-10-11T16:16:01.021Z,39.63
2022-10-11T16:20:06.213Z,39.88
2022-10-11T16:24:09.430Z,39.79
2022-10-11T16:28:13.420Z,40.03
2022-10-11T16:32:16.055Z,40.30
2022-10-11T16:36:35.787Z,40.85
2022-10-11T16:40:39.499Z,41.72
2022-10-11T16:44:43.382Z,41.57
2022-10-11T16:48:45.882Z,42.00
2022-10-11T16:52:48.491Z,42.22
2022-10-11T16:56:51.106Z,42.58
2022-10-11T17:00:55.113Z,42.73
2022-10-11T17:04:57.746Z,43.11
2022-10-11T17:09:00.370Z,43.86
2022-10-11T17:13:02.960Z,44.28
2022-10-11T17:17:10.131Z,45.02
2022-10-11T17:21:15.063Z,45.34
2022-10-11T17:25:17.839Z,45.47
2022-10-11T17:29:21.955Z,44.95
2022-10-11T17:33:27.050Z,44.97
2022-10-11T17:37:29.712Z,45.21
2022-10-11T17:41:32.573Z,45.35
2022-10-11T17:45:35.234Z,45.58
2022-10-11T17:49:39.213Z,45.40
2022-10-11T17:53:42.075Z,46.08
2022-10-11T17:57:45.411Z,46.73
2022-10-11T18:01:48.414Z,46.92
2022-10-11T18:05:52.385Z,47.01
2022-10-11T18:09:54.994Z,46.43
2022-10-11T18:13:57.692Z,46.55
2022-10-11T18:18:00.755Z,46.90
2022-10-11T18:22:07.206Z,46.72
2022-10-11T18:26:11.985Z,46.65
2022-10-11T18:30:14.739Z,46.61
2022-10-11T18:34:17.431Z,46.96
2022-10-11T18:38:21.398Z,47.97
2022-10-11T18:42:24.038Z,48.41
2022-10-11T18:46:27.642Z,48.47
2022-10-11T18:50:34.779Z,48.67
2022-10-11T18:54:39.280Z,48.84
2022-10-11T18:58:43.038Z,49.18
2022-10-11T19:02:45.699Z,49.13
2022-10-11T19:06:50.443Z,48.46
2022-10-11T19:10:54.424Z,48.51
2022-10-11T19:14:57.207Z,48.72
2022-10-11T19:19:00.175Z,48.90
2022-10-11T19:23:02.808Z,50.21
2022-10-11T19:27:06.839Z,50.14
2022-10-11T19:31:11.649Z,50.11
2022-10-11T19:35:19.672Z,49.55
2022-10-11T19:39:23.539Z,49.38
2022-10-11T19:43:27.600Z,49.26
2022-10-11T19:47:30.267Z,49.05
2022-10-11T19:51:34.775Z,50.00
2022-10-11T19:55:37.435Z,51.13
2022-10-11T19:59:41.451Z,50.45
2022-10-11T20:03:45.150Z,49.53
2022-10-11T20:07:47.778Z,49.06
2022-10-11T20:11:50.385Z,48.89
2022-10-11T20:15:58.258Z,48.57
2022-10-11T20:20:00.908Z,48.98
2022-10-11T20:24:04.772Z,49.29
2022-10-11T20:28:07.383Z,48.75
2022-10-11T20:32:11.551Z,48.39
2022-10-11T20:36:15.987Z,48.23
2022-10-11T20:40:18.802Z,48.15
2022-10-11T20:44:21.429Z,48.34
2022-10-11T20:48:25.441Z,48.62
2022-10-11T20:52:28.049Z,48.98
2022-10-11T20:56:30.962Z,48.56
